Time;durP1;ratioP1;P1;durP2;ratioP2;P2;SDS_P1;SDS_P2;PMS_P1;PMS_P2;Temp;Humidity;BMP_temperature;BMP_pressure;BME280_temperature;BME280_humidity;BME280_pressure;Samples;Min_cycle;Max_cycle;Signal;HPM_P1;HPM_P2
2021/10/25 00:06:10;;;;;;;33.07;13.93;;;;;;;4.37;89.12;101561.16;7052107;81;98484;-86
2021/10/25 00:16:11;;;;;;;33.80;14.67;;;;;;;4.26;89.22;101541.50;7063846;81;98990;-86
2021/10/25 00:26:14;;;;;;;32.63;15.50;;;;;;;4.16;89.41;101532.20;7011898;81;1347763;-86
2021/10/25 00:36:14;;;;;;;29.47;14.83;;;;;;;4.06;89.67;101525.64;6927776;83;98892;-86
2021/10/25 00:46:15;;;;;;;29.54;14.08;;;;;;;3.97;89.86;101524.75;6918749;83;98396;-86
2021/10/25 00:56:16;;;;;;;35.30;15.83;;;;;;;3.93;89.98;101511.48;6931332;84;98340;-87
2021/10/25 01:06:16;;;;;;;31.60;14.00;;;;;;;3.87;90.16;101504.55;6919725;83;98872;-87
2021/10/25 01:16:18;;;;;;;32.50;14.60;;;;;;;3.88;90.27;101512.17;6924386;83;98684;-86
2021/10/25 01:26:21;;;;;;;29.70;14.87;;;;;;;3.82;90.18;101506.02;6918346;81;99262;-87
2021/10/25 01:36:22;;;;;;;29.32;13.03;;;;;;;3.76;90.41;101488.17;6939002;83;98516;-86
2021/10/25 01:46:23;;;;;;;29.63;14.00;;;;;;;3.70;90.64;101478.52;6923312;83;98440;-86
2021/10/25 01:56:24;;;;;;;29.70;13.83;;;;;;;3.67;90.77;101461.99;6943329;83;98666;-87
2021/10/25 02:06:25;;;;;;;31.63;14.90;;;;;;;3.62;90.74;101450.67;6928606;83;98508;-87
2021/10/25 02:16:28;;;;;;;28.23;14.87;;;;;;;3.55;90.92;101439.95;6942439;83;98802;-87
2021/10/25 02:26:29;;;;;;;36.20;15.50;;;;;;;3.54;90.81;101428.78;6919629;83;98392;-86
2021/10/25 02:36:30;;;;;;;32.63;15.00;;;;;;;3.44;90.88;101410.77;6966222;82;98297;-87
2021/10/25 02:46:30;;;;;;;30.85;14.85;;;;;;;3.37;90.98;101395.42;6965455;82;98485;-87
2021/10/25 02:56:31;;;;;;;33.57;16.00;;;;;;;3.31;91.14;101384.41;6944956;82;98786;-85
2021/10/25 03:06:35;;;;;;;31.45;16.12;;;;;;;3.26;91.41;101378.26;6946544;83;98716;-86
2021/10/25 03:16:35;;;;;;;30.30;16.63;;;;;;;3.21;91.36;101373.74;6924377;82;98531;-86
2021/10/25 03:26:36;;;;;;;36.40;18.30;;;;;;;3.11;91.39;101360.92;6941653;82;98765;-86
2021/10/25 03:36:39;;;;;;;37.67;18.67;;;;;;;2.99;91.60;101344.30;6942697;83;98779;-86
2021/10/25 03:46:54;;;;;;;40.10;17.57;;;;;;;2.93;91.69;101344.16;6927831;81;98844;-86
2021/10/25 03:57:16;;;;;;;44.37;18.87;;;;;;;2.90;91.80;101329.83;6923570;81;98563;-86
2021/10/25 04:27:48;;;;;;;37.77;19.57;;;;;;;2.76;91.81;101323.05;6926635;81;99152;-86
2021/10/25 04:37:47;;;;;;;32.77;16.23;;;;;;;2.73;91.87;101310.63;7027597;81;99232;-86
2021/10/25 04:47:52;;;;;;;32.23;15.77;;;;;;;2.69;92.03;101300.89;7036865;82;98832;-85
2021/10/25 04:57:50;;;;;;;35.73;18.97;;;;;;;2.64;92.05;101298.84;7023303;82;98432;-86
2021/10/25 05:07:51;;;;;;;39.03;19.02;;;;;;;2.65;92.16;101301.27;7041464;82;98876;-85
2021/10/25 05:17:52;;;;;;;40.10;20.50;;;;;;;2.68;92.24;101301.22;6784323;84;98630;-84
2021/10/25 05:27:53;;;;;;;36.17;17.73;;;;;;;2.67;91.90;101286.81;6834058;84;98719;-85
2021/10/25 05:37:54;;;;;;;34.63;18.37;;;;;;;2.65;92.04;101286.32;6808051;84;98901;-85
2021/10/25 05:47:55;;;;;;;31.77;17.37;;;;;;;2.65;91.97;101282.78;6813896;84;98703;-85
2021/10/25 05:57:56;;;;;;;39.67;19.83;;;;;;;2.55;91.78;101276.20;6813276;84;98710;-86
2021/10/25 06:07:58;;;;;;;36.63;17.83;;;;;;;2.52;91.85;101271.39;6797040;84;98864;-85
2021/10/25 06:17:59;;;;;;;41.77;20.50;;;;;;;2.49;91.78;101276.87;6799614;84;99168;-87
2021/10/25 06:27:59;;;;;;;46.20;21.50;;;;;;;2.44;91.93;101283.77;6803286;84;99035;-86
2021/10/25 06:38:10;;;;;;;46.23;21.30;;;;;;;2.44;91.91;101291.91;6805488;84;98932;-85
2021/10/25 06:48:08;;;;;;;45.33;18.97;;;;;;;2.48;92.14;101292.11;6782683;84;2537488;-85
2021/10/25 06:58:09;;;;;;;34.87;17.97;;;;;;;2.56;92.25;101310.44;6811196;84;99120;-84
2021/10/25 07:08:13;;;;;;;36.93;15.67;;;;;;;2.69;92.28;101304.18;6654680;86;98676;-84
2021/10/25 07:18:23;;;;;;;31.37;15.03;;;;;;;2.84;92.10;101301.15;6807305;84;98758;-85
2021/10/25 07:59:55;;;;;;;27.53;13.50;;;;;;;3.82;90.65;101288.77;6809467;84;98480;-84
2021/10/25 08:09:55;;;;;;;33.03;12.60;;;;;;;4.18;90.43;101290.78;6811311;84;98567;-84
2021/10/25 08:19:55;;;;;;;28.00;13.20;;;;;;;4.77;89.31;101280.66;6793741;84;99212;-83
2021/10/25 08:29:56;;;;;;;28.30;13.83;;;;;;;5.52;88.94;101274.21;6795417;85;99177;-86
2021/10/25 08:40:05;;;;;;;24.93;11.83;;;;;;;6.36;86.35;101270.48;6804660;84;98808;-87
2021/10/25 08:50:13;;;;;;;22.57;11.60;;;;;;;7.43;83.87;101266.08;6809947;84;99121;-88
2021/10/25 09:00:19;;;;;;;25.77;12.03;;;;;;;8.75;84.72;101263.05;6795539;84;98800;-89
2021/10/25 09:10:30;;;;;;;23.67;12.17;;;;;;;10.24;78.13;101250.48;6799635;84;99108;-87
2021/10/25 09:20:31;;;;;;;23.00;11.22;;;;;;;11.16;77.06;101250.09;6764527;84;2556884;-87
2021/10/25 09:30:40;;;;;;;21.30;11.37;;;;;;;12.16;75.88;101236.75;6797443;84;99792;-88
2021/10/25 09:41:18;;;;;;;23.73;12.23;;;;;;;13.23;72.53;101232.50;6822957;85;99250;-87
2021/10/25 09:50:56;;;;;;;25.70;11.90;;;;;;;13.95;70.25;101226.85;6756289;85;2553337;-88
2021/10/25 10:00:57;;;;;;;;;;;;;;;14.69;67.37;101220.80;6785511;84;99642;-87
2021/10/25 10:10:58;;;;;;;24.80;11.15;;;;;;;15.08;61.88;101207.16;6786593;86;85105;-88
2021/10/25 10:21:02;;;;;;;22.52;10.55;;;;;;;15.38;63.08;101209.13;6975400;81;1519941;-89
2021/10/25 10:31:24;;;;;;;18.83;9.90;;;;;;;15.39;61.48;101203.19;7003228;82;99619;-87
2021/10/25 10:41:51;;;;;;;22.23;10.60;;;;;;;15.53;60.79;101187.19;6881000;84;99068;-88
2021/10/25 11:02:21;;;;;;;16.87;9.83;;;;;;;15.26;58.73;101167.84;6800022;85;99319;-88
2021/10/25 11:12:22;;;;;;;15.93;9.13;;;;;;;14.56;57.47;101165.47;6801750;84;2292452;-87
2021/10/25 11:22:35;;;;;;;20.77;9.77;;;;;;;14.29;58.45;101159.94;6839974;84;186616;-86
2021/10/25 11:32:39;;;;;;;17.77;8.60;;;;;;;13.96;57.57;101168.33;6812719;85;99267;-87
2021/10/25 11:42:43;;;;;;;19.53;8.63;;;;;;;13.69;57.93;101157.80;6889195;82;99558;-87
2021/10/25 11:53:02;;;;;;;16.13;7.57;;;;;;;13.50;58.79;101137.23;6899312;83;99227;-88
2021/10/25 12:03:16;;;;;;;18.43;8.20;;;;;;;13.43;59.40;101133.03;6899924;83;99116;-86
2021/10/25 12:13:17;;;;;;;18.17;8.40;;;;;;;13.18;58.83;101116.73;6893714;83;99359;-86
2021/10/25 12:23:21;;;;;;;17.33;8.20;;;;;;;13.03;59.13;101115.00;6909938;82;99638;-86
2021/10/25 12:33:23;;;;;;;18.83;9.20;;;;;;;12.90;59.29;101104.75;6904171;81;98977;-87
2021/10/25 12:43:24;;;;;;;19.30;9.00;;;;;;;12.86;58.80;101107.27;6934655;82;98967;-85
2021/10/25 12:53:29;;;;;;;17.30;8.20;;;;;;;12.61;58.90;101097.28;6935318;82;98998;-84
2021/10/25 13:03:30;;;;;;;16.57;8.50;;;;;;;12.52;58.70;101083.52;6930383;81;99036;-87
2021/10/25 13:13:36;;;;;;;15.70;7.80;;;;;;;12.28;58.37;101081.22;6940730;82;99023;-85
2021/10/25 13:23:36;;;;;;;18.53;7.83;;;;;;;12.22;59.16;101074.42;6944338;83;99043;-86
2021/10/25 13:33:40;;;;;;;18.17;8.53;;;;;;;12.17;58.59;101065.89;6932192;81;99409;-85
2021/10/25 13:43:40;;;;;;;13.95;7.95;;;;;;;12.09;58.90;101055.09;6908879;83;99469;-88
2021/10/25 13:53:42;;;;;;;16.55;7.62;;;;;;;11.93;59.10;101045.61;6898967;82;99615;-86
2021/10/25 14:03:44;;;;;;;16.93;7.33;;;;;;;11.75;59.30;101038.22;6914871;83;107738;-87
2021/10/25 14:23:49;;;;;;;18.77;8.63;;;;;;;11.38;59.86;101027.52;6905430;83;99318;-86
2021/10/25 14:33:51;;;;;;;18.53;8.53;;;;;;;11.28;60.15;101032.29;6939791;82;104434;-89
2021/10/25 14:43:57;;;;;;;23.70;10.58;;;;;;;11.18;60.68;101031.52;6952650;83;99233;-87
2021/10/25 14:54:05;;;;;;;18.82;8.25;;;;;;;11.03;60.75;101028.27;6942106;82;99474;-87
2021/10/25 15:04:02;;;;;;;22.97;10.40;;;;;;;10.89;61.60;101013.66;6932656;83;99425;-87
2021/10/25 15:14:03;;;;;;;23.17;11.17;;;;;;;10.65;63.99;101009.85;6966497;82;99239;-87
2021/10/25 15:24:05;;;;;;;22.97;11.07;;;;;;;10.32;65.64;100999.94;6929059;83;2023152;-87
2021/10/25 15:34:07;;;;;;;24.67;12.20;;;;;;;9.92;66.88;100993.11;6947707;81;99816;-86
2021/10/25 15:44:11;;;;;;;26.23;12.88;;;;;;;9.48;68.02;100988.34;6899106;82;113295;-85
2021/10/25 15:54:11;;;;;;;37.97;19.00;;;;;;;9.02;69.45;100982.28;6900807;82;99423;-85
2021/10/25 16:04:14;;;;;;;35.97;22.47;;;;;;;8.75;70.75;100993.29;6904334;83;98998;-86
2021/10/25 16:14:15;;;;;;;61.40;36.97;;;;;;;8.44;71.58;100991.83;6903640;81;98564;-85
2021/10/25 16:24:16;;;;;;;53.50;29.37;;;;;;;8.05;73.04;100984.38;6903510;83;98903;-84
2021/10/25 16:34:17;;;;;;;63.13;32.93;;;;;;;7.73;73.94;100988.89;6920165;79;98921;-85
2021/10/25 16:44:18;;;;;;;85.77;45.45;;;;;;;7.55;74.96;100988.92;6917836;82;98622;-85
2021/10/25 16:54:44;;;;;;;118.57;58.87;;;;;;;7.28;75.32;100976.47;6914401;80;98900;-85
2021/10/25 17:14:33;;;;;;;147.33;73.17;;;;;;;6.79;77.32;100978.34;6929791;83;98789;-85
2021/10/25 17:24:36;;;;;;;129.90;64.53;;;;;;;6.61;77.86;100979.63;6908179;80;99109;-85
2021/10/25 17:34:37;;;;;;;109.92;53.50;;;;;;;6.41;78.11;100978.31;6919156;82;99115;-88
2021/10/25 17:55:44;;;;;;;88.27;46.20;;;;;;;6.11;79.30;100976.82;6104562;89;5886368;-87
2021/10/25 18:05:45;;;;;;;76.30;40.12;;;;;;;5.96;79.75;100981.52;6528512;85;99294;-89
2021/10/25 18:26:38;;;;;;;66.97;36.97;;;;;;;5.72;79.91;100967.69;6989760;82;2124915;-80
2021/10/25 18:36:41;;;;;;;77.33;41.77;;;;;;;5.60;80.76;100961.56;7053292;81;99276;-79
2021/10/25 18:46:42;;;;;;;;;;;;;;;5.54;81.21;100956.61;7056804;79;135614;-80
2021/10/25 18:56:42;;;;;;;102.60;53.40;;;;;;;5.44;82.05;100954.26;7053128;81;112938;-80
2021/10/25 19:06:44;;;;;;;79.10;41.75;;;;;;;5.38;81.67;100953.66;7056403;81;99373;-79
2021/10/25 19:16:45;;;;;;;75.50;42.17;;;;;;;5.29;82.13;100937.89;7057177;81;98843;-81
2021/10/25 19:26:49;;;;;;;74.87;37.27;;;;;;;5.29;82.46;100935.74;6967958;82;141929;-80
2021/10/25 19:36:49;;;;;;;60.45;31.82;;;;;;;5.26;82.40;100925.47;6963255;82;100223;-81
2021/10/25 19:46:53;;;;;;;74.92;36.33;;;;;;;5.32;82.48;100931.78;6929233;81;99083;-80
2021/10/25 19:56:53;;;;;;;70.42;35.23;;;;;;;5.37;82.60;100925.33;6813101;83;98915;-80
2021/10/25 20:06:54;;;;;;;67.50;33.13;;;;;;;5.38;82.57;100933.74;6880303;82;188212;-81
2021/10/25 20:16:56;;;;;;;63.43;32.50;;;;;;;5.39;82.72;100917.05;6939065;83;124203;-80
2021/10/25 20:26:56;;;;;;;59.10;30.17;;;;;;;5.41;82.84;100925.69;7001290;82;143856;-80
2021/10/25 20:36:57;;;;;;;56.23;26.47;;;;;;;5.36;83.12;100904.05;7008037;82;126495;-80
2021/10/25 20:46:58;;;;;;;51.97;26.80;;;;;;;5.34;83.41;100909.05;7005635;82;148682;-81
2021/10/25 20:56:59;;;;;;;67.10;30.60;;;;;;;5.26;83.28;100926.28;7000742;82;104409;-80
2021/10/25 21:07:00;;;;;;;60.43;28.83;;;;;;;5.20;83.53;100918.05;6982500;82;126700;-80
2021/10/25 21:17:01;;;;;;;61.23;31.83;;;;;;;5.13;83.57;100912.28;6996482;81;192890;-83
2021/10/25 21:27:04;;;;;;;60.38;30.62;;;;;;;5.05;83.78;100909.61;6916160;82;114742;-81
2021/10/25 21:37:05;;;;;;;62.95;30.57;;;;;;;4.91;83.72;100909.83;6880087;82;99259;-81
2021/10/25 21:47:07;;;;;;;51.57;24.80;;;;;;;4.82;84.10;100917.27;6903746;82;98856;-81
2021/10/25 21:57:08;;;;;;;48.23;24.53;;;;;;;4.79;84.27;100905.63;6906911;82;99291;-81
2021/10/25 22:07:09;;;;;;;50.17;23.70;;;;;;;4.98;84.55;100897.87;6914214;82;99216;-81
2021/10/25 22:17:09;;;;;;;43.60;21.93;;;;;;;5.14;84.31;100911.16;6916041;82;98953;-81
2021/10/25 22:27:10;;;;;;;55.80;26.43;;;;;;;5.20;84.06;100904.96;6929931;84;98877;-80
2021/10/25 22:37:12;;;;;;;47.05;23.38;;;;;;;5.29;83.82;100911.96;6891353;84;98962;-81
2021/10/25 22:47:13;;;;;;;58.33;27.83;;;;;;;5.27;83.76;100907.96;6945412;84;98950;-81
2021/10/25 22:57:13;;;;;;;49.97;23.93;;;;;;;5.28;83.83;100912.28;6910354;82;98882;-81
2021/10/25 23:07:15;;;;;;;44.03;21.63;;;;;;;5.30;83.75;100910.05;6920603;83;98985;-81
2021/10/25 23:17:16;;;;;;;48.63;22.63;;;;;;;5.30;83.75;100908.68;6929232;83;98862;-81
2021/10/25 23:27:17;;;;;;;40.70;20.83;;;;;;;5.20;83.90;100911.78;6992471;82;99342;-81
2021/10/25 23:37:22;;;;;;;42.50;20.73;;;;;;;5.18;83.71;100916.78;7011424;81;98926;-81
2021/10/25 23:47:23;;;;;;;42.53;22.00;;;;;;;5.14;83.94;100907.64;7012773;82;98900;-80
2021/10/25 23:57:24;;;;;;;37.43;19.30;;;;;;;5.09;84.09;100911.92;7014708;82;99464;-81
